Time;durP1;ratioP1;P1;durP2;ratioP2;P2;SDS_P1;SDS_P2;PMS_P1;PMS_P2;Temp;Humidity;BMP_temperature;BMP_pressure;BME280_temperature;BME280_humidity;BME280_pressure;Samples;Min_cycle;Max_cycle;Signal;HPM_P1;HPM_P2
2022/08/09 00:02:07;;;;;;;2.80;2.40;;;25.70;79.20;;;;;;5037264;28;20233;-75
2022/08/09 00:04:33;;;;;;;2.92;2.30;;;25.70;79.30;;;;;;5049474;28;20028;-75
2022/08/09 00:06:59;;;;;;;2.75;2.55;;;25.70;79.60;;;;;;5047196;28;20036;-74
2022/08/09 00:09:25;;;;;;;3.45;2.40;;;25.60;79.50;;;;;;5038172;28;20025;-75
2022/08/09 00:11:51;;;;;;;2.42;2.22;;;25.60;79.70;;;;;;5036379;28;20383;-74
2022/08/09 00:14:17;;;;;;;2.97;2.50;;;25.60;79.90;;;;;;5039112;28;20032;-76
2022/08/09 00:16:43;;;;;;;2.95;2.30;;;25.60;79.80;;;;;;5034132;28;20037;-75
2022/08/09 00:19:09;;;;;;;2.40;2.20;;;25.60;80.00;;;;;;5046443;28;20053;-75
2022/08/09 00:21:35;;;;;;;3.25;2.10;;;25.50;80.10;;;;;;5048650;28;20095;-75
2022/08/09 00:24:01;;;;;;;2.45;2.08;;;25.50;80.20;;;;;;5039726;28;20116;-75
2022/08/09 00:26:28;;;;;;;3.75;2.30;;;25.50;80.50;;;;;;5031693;28;20425;-76
2022/08/09 00:28:54;;;;;;;2.55;2.35;;;25.50;80.80;;;;;;5040649;28;20159;-75
2022/08/09 00:31:22;;;;;;;8.52;2.35;;;25.40;80.80;;;;;;5033495;28;20100;-75
2022/08/09 00:33:48;;;;;;;3.03;2.47;;;25.40;80.80;;;;;;5045434;28;20025;-75
2022/08/09 00:36:14;;;;;;;3.15;2.60;;;25.50;81.30;;;;;;5049764;28;20067;-75
2022/08/09 00:38:40;;;;;;;4.10;2.70;;;25.50;81.40;;;;;;5040923;28;20049;-75
2022/08/09 00:41:06;;;;;;;4.50;2.35;;;25.40;81.30;;;;;;5032168;28;20761;-75
2022/08/09 00:43:35;;;;;;;3.67;2.28;;;25.40;81.60;;;;;;5039689;28;20115;-76
2022/08/09 00:46:02;;;;;;;2.67;2.38;;;25.40;81.60;;;;;;5033413;28;20028;-75
2022/08/09 00:48:30;;;;;;;3.05;2.45;;;25.40;81.60;;;;;;5039088;28;20488;-75
2022/08/09 00:50:57;;;;;;;3.92;2.53;;;25.40;81.70;;;;;;5032868;28;20091;-76
2022/08/09 00:53:23;;;;;;;3.03;2.40;;;25.40;81.80;;;;;;5041333;28;20025;-75
2022/08/09 00:55:48;;;;;;;5.22;2.75;;;25.40;81.90;;;;;;5032041;28;20124;-75
2022/08/09 00:58:14;;;;;;;4.75;2.58;;;25.40;82.20;;;;;;5041324;28;20615;-75
2022/08/09 01:00:42;;;;;;;4.60;2.17;;;25.30;82.20;;;;;;5032352;28;20524;-75
2022/08/09 01:03:18;;;;;;;3.00;2.40;;;25.30;82.30;;;;;;5041690;28;20418;-74
2022/08/09 01:06:08;;;;;;;2.80;2.15;;;25.30;82.30;;;;;;5011217;28;20104;-74
2022/08/09 01:08:50;;;;;;;2.70;2.50;;;25.30;82.40;;;;;;5040259;28;20032;-75
2022/08/09 01:11:43;;;;;;;4.03;2.47;;;25.20;82.50;;;;;;5032999;28;20028;-75
2022/08/09 01:14:16;;;;;;;2.58;2.38;;;25.20;82.50;;;;;;5037694;28;20287;-75
2022/08/09 01:16:45;;;;;;;3.20;2.10;;;25.10;82.60;;;;;;5033845;28;20028;-74
2022/08/09 01:19:40;;;;;;;7.63;2.33;;;25.10;82.60;;;;;;5045174;28;20120;-74
2022/08/09 01:22:35;;;;;;;3.05;2.15;;;25.10;82.70;;;;;;5044044;28;20032;-74
2022/08/09 01:25:10;;;;;;;3.30;2.20;;;25.10;82.60;;;;;;5033114;28;20056;-74
2022/08/09 01:27:38;;;;;;;6.13;2.13;;;25.00;82.20;;;;;;5038133;28;20108;-74
2022/08/09 01:30:07;;;;;;;2.38;2.15;;;25.00;82.10;;;;;;5034750;28;20049;-74
2022/08/09 01:32:40;;;;;;;2.80;2.13;;;25.00;82.00;;;;;;5039444;28;20086;-74
2022/08/09 01:35:14;;;;;;;3.78;2.00;;;25.00;82.00;;;;;;5047043;28;20024;-74
2022/08/09 01:37:42;;;;;;;3.85;2.10;;;25.00;81.40;;;;;;5041585;28;20037;-73
2022/08/09 01:40:10;;;;;;;3.63;1.90;;;24.90;80.90;;;;;;5033074;28;20560;-75
2022/08/09 01:42:37;;;;;;;6.80;1.70;;;24.90;80.40;;;;;;5037781;28;20399;-73
2022/08/09 01:45:04;;;;;;;2.72;2.03;;;24.90;80.10;;;;;;5033428;28;20480;-74
2022/08/09 01:47:31;;;;;;;3.55;1.85;;;24.90;79.70;;;;;;5038354;28;20032;-74
2022/08/09 01:49:57;;;;;;;5.35;1.77;;;24.90;79.60;;;;;;5033249;28;20388;-74
2022/08/09 01:52:24;;;;;;;5.25;1.80;;;24.90;79.30;;;;;;5037599;28;20063;-75
2022/08/09 01:54:55;;;;;;;4.15;1.45;;;24.80;79.10;;;;;;5034347;28;20022;-74
2022/08/09 01:57:44;;;;;;;3.00;1.70;;;24.80;79.10;;;;;;5037382;28;20040;-74
2022/08/09 02:00:12;;;;;;;2.08;1.55;;;24.70;78.80;;;;;;5034081;28;20033;-74
2022/08/09 02:02:42;;;;;;;4.20;1.70;;;24.70;78.90;;;;;;5035162;28;20033;-74
2022/08/09 02:05:11;;;;;;;1.95;1.50;;;24.70;78.80;;;;;;5034203;28;20024;-74
2022/08/09 02:07:43;;;;;;;2.58;1.58;;;24.70;78.60;;;;;;5037475;28;20024;-73
2022/08/09 02:10:18;;;;;;;2.67;1.63;;;24.60;78.60;;;;;;5034279;28;20397;-73
2022/08/09 02:12:45;;;;;;;2.70;1.75;;;24.60;78.50;;;;;;5038885;28;20036;-74
2022/08/09 02:15:13;;;;;;;2.97;1.90;;;24.60;78.60;;;;;;5046191;28;20029;-73
2022/08/09 02:17:40;;;;;;;2.67;1.60;;;24.60;78.60;;;;;;5041825;28;20384;-74
2022/08/09 02:20:06;;;;;;;2.20;1.60;;;24.60;78.50;;;;;;5034216;28;20085;-73
2022/08/09 02:22:44;;;;;;;1.85;1.60;;;24.50;78.70;;;;;;5039981;28;20033;-74
2022/08/09 02:25:16;;;;;;;2.25;1.63;;;24.50;78.50;;;;;;5033865;28;20042;-73
2022/08/09 02:27:48;;;;;;;2.55;1.90;;;24.50;78.60;;;;;;5035324;28;20051;-73
2022/08/09 02:30:13;;;;;;;;;;;24.50;78.60;;;;;;5034606;28;20028;-73
2022/08/09 02:32:43;;;;;;;1.98;1.67;;;24.50;78.70;;;;;;5037815;28;19909;-74
2022/08/09 02:35:19;;;;;;;2.47;1.65;;;24.50;79.70;;;;;;5047720;28;20506;-74
2022/08/09 02:37:48;;;;;;;3.50;1.45;;;24.40;78.90;;;;;;5040768;28;20053;-73
2022/08/09 02:40:17;;;;;;;2.50;1.40;;;24.40;78.90;;;;;;5033667;28;20548;-73
2022/08/09 02:42:48;;;;;;;2.10;1.50;;;24.40;78.80;;;;;;5038123;28;20017;-74
2022/08/09 02:45:17;;;;;;;3.83;1.50;;;24.40;78.90;;;;;;5047458;28;20542;-73
2022/08/09 02:47:45;;;;;;;2.47;1.60;;;24.40;78.80;;;;;;5042403;28;20040;-74
2022/08/09 02:50:19;;;;;;;1.88;1.60;;;24.30;78.90;;;;;;5049365;28;20029;-74
2022/08/09 02:53:00;;;;;;;5.22;1.70;;;24.30;78.90;;;;;;5046150;28;20028;-73
2022/08/09 02:55:27;;;;;;;4.72;1.63;;;24.40;78.90;;;;;;5049957;28;20029;-73
2022/08/09 02:57:55;;;;;;;4.00;1.80;;;24.30;79.00;;;;;;5043448;28;20431;-73
2022/08/09 03:00:22;;;;;;;5.72;1.83;;;24.30;78.90;;;;;;5048420;28;20029;-74
2022/08/09 03:02:52;;;;;;;3.20;1.90;;;24.30;78.80;;;;;;5045026;28;20045;-74
2022/08/09 03:05:19;;;;;;;5.28;1.80;;;24.30;78.70;;;;;;5037597;28;20033;-73
2022/08/09 03:07:46;;;;;;;4.57;1.90;;;24.30;78.90;;;;;;5040535;28;20064;-74
2022/08/09 03:10:12;;;;;;;3.10;1.52;;;24.30;78.90;;;;;;5036195;28;20021;-74
2022/08/09 03:12:39;;;;;;;2.20;1.65;;;24.30;78.90;;;;;;5040854;28;20025;-74
2022/08/09 03:15:07;;;;;;;5.28;1.70;;;24.30;78.90;;;;;;5035973;28;20049;-74
2022/08/09 03:17:35;;;;;;;3.63;1.77;;;24.30;79.30;;;;;;5040307;28;20119;-74
2022/08/09 03:20:03;;;;;;;2.17;1.83;;;24.30;78.70;;;;;;5037420;28;20566;-74
2022/08/09 03:22:30;;;;;;;5.10;1.75;;;24.30;78.70;;;;;;5039459;28;20025;-73
2022/08/09 03:24:59;;;;;;;1.58;1.17;;;24.30;78.80;;;;;;5040401;28;20022;-74
2022/08/09 03:27:26;;;;;;;5.35;1.65;;;24.30;78.90;;;;;;5040485;28;20510;-75
2022/08/09 03:29:53;;;;;;;8.75;1.67;;;24.30;78.90;;;;;;5037251;28;20488;-73
2022/08/09 03:32:20;;;;;;;3.08;1.67;;;24.20;79.10;;;;;;5038934;28;20025;-73
2022/08/09 03:34:46;;;;;;;2.45;1.85;;;24.20;79.20;;;;;;5050555;28;20067;-73
2022/08/09 03:37:13;;;;;;;2.83;1.58;;;24.20;79.50;;;;;;5047013;28;20074;-74
2022/08/09 03:39:38;;;;;;;2.58;1.70;;;24.20;79.40;;;;;;5030051;28;20052;-73
2022/08/09 03:42:05;;;;;;;2.38;1.60;;;24.20;79.30;;;;;;5038791;28;20026;-73
2022/08/09 03:44:30;;;;;;;4.47;1.70;;;24.30;79.50;;;;;;5036601;28;20036;-74
2022/08/09 03:46:56;;;;;;;3.47;1.70;;;24.30;79.40;;;;;;5037732;28;20103;-74
2022/08/09 03:49:26;;;;;;;3.58;1.33;;;24.30;79.30;;;;;;5039174;28;20017;-74
2022/08/09 03:51:56;;;;;;;4.47;2.20;;;24.30;79.30;;;;;;5035638;28;20479;-73
2022/08/09 03:54:25;;;;;;;3.58;1.83;;;24.30;79.70;;;;;;5038862;28;20072;-73
2022/08/09 03:56:52;;;;;;;3.63;1.70;;;24.30;79.90;;;;;;5036449;28;20183;-74
2022/08/09 03:59:18;;;;;;;3.97;1.73;;;24.30;80.00;;;;;;5050100;28;20021;-73
2022/08/09 04:01:44;;;;;;;3.05;1.77;;;24.30;80.10;;;;;;5048581;28;20026;-73
2022/08/09 04:04:11;;;;;;;3.95;2.10;;;24.30;80.30;;;;;;5045674;28;20031;-74
2022/08/09 04:06:38;;;;;;;7.15;1.92;;;24.30;80.50;;;;;;5048963;28;20474;-74
2022/08/09 04:09:05;;;;;;;2.70;1.75;;;24.30;80.60;;;;;;5040195;28;20095;-74
2022/08/09 04:11:48;;;;;;;3.78;1.83;;;24.30;80.60;;;;;;5034974;28;20086;-74
2022/08/09 04:14:19;;;;;;;3.63;1.80;;;24.30;80.90;;;;;;5046613;28;20067;-73
2022/08/09 04:16:44;;;;;;;2.28;1.63;;;24.30;81.10;;;;;;5048017;28;20021;-74
2022/08/09 04:19:12;;;;;;;2.20;1.67;;;24.30;81.10;;;;;;5039575;28;20032;-75
2022/08/09 04:21:38;;;;;;;3.97;1.77;;;24.30;81.00;;;;;;5034163;28;20021;-74
2022/08/09 04:24:04;;;;;;;3.75;1.70;;;24.30;80.40;;;;;;5036159;28;20056;-75
2022/08/09 04:26:30;;;;;;;3.90;1.67;;;24.30;80.10;;;;;;5034581;28;20108;-74
2022/08/09 04:28:56;;;;;;;4.35;1.83;;;24.30;80.10;;;;;;5042595;28;20419;-75
2022/08/09 04:31:22;;;;;;;2.20;1.50;;;24.40;80.00;;;;;;5048832;28;20033;-73
2022/08/09 04:33:47;;;;;;;3.58;1.83;;;24.40;79.60;;;;;;5045673;28;20025;-75
2022/08/09 04:36:13;;;;;;;4.00;1.80;;;24.40;79.30;;;;;;5050043;28;20074;-73
2022/08/09 04:38:39;;;;;;;6.68;1.90;;;24.50;79.20;;;;;;5043792;28;20487;-74
2022/08/09 04:41:04;;;;;;;4.00;1.80;;;24.50;79.00;;;;;;5050833;28;20451;-75
2022/08/09 04:43:30;;;;;;;2.90;1.92;;;24.50;79.00;;;;;;5041233;28;20084;-74
2022/08/09 04:45:56;;;;;;;2.58;1.50;;;24.50;78.70;;;;;;5051228;28;20361;-74
2022/08/09 04:48:21;;;;;;;2.22;1.60;;;24.50;78.50;;;;;;5041712;28;20040;-73
2022/08/09 04:50:47;;;;;;;6.55;1.80;;;24.40;78.40;;;;;;5032311;28;20022;-73
2022/08/09 04:53:13;;;;;;;8.80;1.80;;;24.50;77.90;;;;;;5042300;28;20040;-73
2022/08/09 04:55:40;;;;;;;4.68;1.67;;;24.40;78.00;;;;;;5031230;28;20029;-73
2022/08/09 04:58:06;;;;;;;4.72;1.42;;;24.40;78.00;;;;;;5038661;28;20095;-74
2022/08/09 05:00:35;;;;;;;5.82;1.80;;;24.40;77.70;;;;;;5050763;28;20033;-73
2022/08/09 05:03:04;;;;;;;3.00;1.65;;;24.40;77.80;;;;;;5038483;28;20041;-74
2022/08/09 05:05:30;;;;;;;3.67;1.60;;;24.40;77.70;;;;;;5033213;28;20484;-73
2022/08/09 05:07:56;;;;;;;1.55;1.40;;;24.40;77.90;;;;;;5042993;28;20047;-72
2022/08/09 05:10:23;;;;;;;5.75;1.40;;;24.40;77.80;;;;;;5045910;28;20025;-72
2022/08/09 05:12:49;;;;;;;2.40;1.60;;;24.40;77.70;;;;;;5040750;28;20539;-73
2022/08/09 05:15:15;;;;;;;4.82;1.65;;;24.40;77.40;;;;;;5046702;28;20025;-73
2022/08/09 05:17:41;;;;;;;2.60;1.55;;;24.40;77.20;;;;;;5040313;28;20058;-74
2022/08/09 05:20:08;;;;;;;2.78;1.67;;;24.50;77.30;;;;;;5045528;28;20021;-73
2022/08/09 05:22:34;;;;;;;2.70;1.60;;;24.50;77.20;;;;;;5041524;28;20037;-72
2022/08/09 05:25:00;;;;;;;4.70;1.60;;;24.50;77.00;;;;;;5032956;28;20432;-73
2022/08/09 05:27:26;;;;;;;3.78;1.42;;;24.50;77.00;;;;;;5038042;28;20108;-74
2022/08/09 05:29:51;;;;;;;6.00;1.95;;;24.60;77.20;;;;;;5032101;28;20124;-75
2022/08/09 05:32:17;;;;;;;3.65;1.60;;;24.60;77.20;;;;;;5034087;28;20034;-75
2022/08/09 05:34:44;;;;;;;5.70;1.80;;;24.60;77.30;;;;;;5046476;28;20021;-74
2022/08/09 05:37:10;;;;;;;3.38;1.73;;;24.60;77.10;;;;;;5041930;28;20033;-76
2022/08/09 05:39:37;;;;;;;3.78;1.90;;;24.60;77.30;;;;;;5047515;28;20561;-74
2022/08/09 05:42:03;;;;;;;5.55;1.50;;;24.60;77.20;;;;;;5044640;28;20361;-74
2022/08/09 05:44:29;;;;;;;4.00;1.40;;;24.70;77.20;;;;;;5042547;28;20293;-75
2022/08/09 05:46:55;;;;;;;3.22;1.73;;;24.80;77.00;;;;;;5044221;28;20471;-74
2022/08/09 05:49:20;;;;;;;6.40;1.60;;;24.80;76.90;;;;;;5037146;28;20040;-74
2022/08/09 05:51:46;;;;;;;6.90;1.58;;;24.80;76.40;;;;;;5032939;28;20412;-73
2022/08/09 05:54:12;;;;;;;6.07;1.70;;;24.80;76.60;;;;;;5039675;28;20035;-74
2022/08/09 05:56:37;;;;;;;5.82;1.65;;;24.90;77.50;;;;;;5033688;28;20087;-74
2022/08/09 05:59:03;;;;;;;3.70;1.55;;;24.90;76.70;;;;;;5037822;28;20089;-72
2022/08/09 06:01:29;;;;;;;4.38;1.70;;;25.00;76.30;;;;;;5032615;28;20560;-74
2022/08/09 06:03:55;;;;;;;2.88;1.80;;;25.00;76.20;;;;;;5044434;28;20021;-73
2022/08/09 06:06:22;;;;;;;6.72;1.60;;;25.00;75.90;;;;;;5047001;28;20120;-73
2022/08/09 06:08:48;;;;;;;2.72;1.60;;;25.00;76.10;;;;;;5041793;28;20443;-74
2022/08/09 06:11:14;;;;;;;6.00;2.00;;;25.00;76.10;;;;;;5046752;28;20037;-76
2022/08/09 06:13:40;;;;;;;4.45;2.17;;;25.00;76.00;;;;;;5037826;28;20037;-79
2022/08/09 06:16:06;;;;;;;3.85;1.42;;;25.00;76.30;;;;;;5030217;28;20060;-74
2022/08/09 06:18:33;;;;;;;3.17;1.55;;;25.10;76.30;;;;;;5039689;28;20065;-73
2022/08/09 06:21:00;;;;;;;7.07;1.75;;;25.10;76.00;;;;;;5031295;28;20507;-75
2022/08/09 06:23:27;;;;;;;6.78;1.70;;;25.10;76.10;;;;;;5037004;28;20116;-74
2022/08/09 06:25:53;;;;;;;3.17;1.80;;;25.10;76.10;;;;;;5047992;28;20108;-77
2022/08/09 06:28:19;;;;;;;5.13;1.63;;;25.20;76.10;;;;;;5046035;28;20103;-76
2022/08/09 06:30:44;;;;;;;4.22;1.85;;;25.20;76.30;;;;;;5030403;28;20034;-75
2022/08/09 06:33:10;;;;;;;2.03;1.35;;;25.30;76.10;;;;;;5040787;28;20025;-78
2022/08/09 06:35:36;;;;;;;6.60;1.63;;;25.40;75.60;;;;;;5049730;28;20052;-77
2022/08/09 06:38:02;;;;;;;4.25;1.50;;;25.40;75.60;;;;;;5037793;28;20124;-75
2022/08/09 06:40:28;;;;;;;2.80;1.77;;;25.50;75.50;;;;;;5032743;28;20056;-77
2022/08/09 06:42:54;;;;;;;2.47;1.80;;;25.40;75.30;;;;;;5035703;28;20036;-78
2022/08/09 06:45:19;;;;;;;5.97;1.90;;;25.50;76.10;;;;;;5044265;28;20025;-77
2022/08/09 06:47:47;;;;;;;6.38;1.70;;;25.60;75.50;;;;;;5039115;28;20044;-76
2022/08/09 06:50:13;;;;;;;4.80;1.58;;;25.60;75.20;;;;;;5033671;28;20194;-76
2022/08/09 06:52:44;;;;;;;4.88;1.80;;;25.70;75.50;;;;;;5035564;28;20428;-77
2022/08/09 06:55:17;;;;;;;3.47;1.80;;;25.70;75.40;;;;;;5033589;28;20026;-76
2022/08/09 06:57:43;;;;;;;3.83;1.80;;;25.60;74.90;;;;;;5035404;28;20041;-77
2022/08/09 07:00:10;;;;;;;2.95;1.73;;;25.70;75.40;;;;;;5032496;28;20369;-79
2022/08/09 07:02:36;;;;;;;3.75;1.65;;;25.70;75.30;;;;;;5038078;28;20483;-79
2022/08/09 07:05:02;;;;;;;5.07;1.63;;;25.70;75.60;;;;;;5047276;28;20079;-76
2022/08/09 07:07:28;;;;;;;4.15;1.90;;;25.80;75.20;;;;;;5042928;28;20025;-76
2022/08/09 07:09:54;;;;;;;2.20;1.65;;;25.90;75.50;;;;;;5033833;28;20084;-78
2022/08/09 07:12:20;;;;;;;2.60;1.90;;;26.00;75.30;;;;;;5036734;28;20032;-76
2022/08/09 07:14:47;;;;;;;3.25;1.70;;;26.10;74.40;;;;;;5033561;28;20018;-77
2022/08/09 07:17:13;;;;;;;3.80;1.70;;;26.20;73.90;;;;;;5036905;28;20063;-77
2022/08/09 07:19:39;;;;;;;2.55;1.80;;;26.20;74.10;;;;;;5026796;28;20025;-79
2022/08/09 07:22:06;;;;;;;1.90;1.45;;;26.30;73.90;;;;;;5035501;28;20542;-77
2022/08/09 07:24:32;;;;;;;3.60;1.67;;;26.40;74.10;;;;;;5034891;28;20033;-84
2022/08/09 07:26:59;;;;;;;3.92;1.50;;;26.40;73.50;;;;;;5033130;28;21360;-77
2022/08/09 07:29:26;;;;;;;2.08;1.65;;;26.40;74.00;;;;;;5024143;28;20029;-82
2022/08/09 07:31:52;;;;;;;4.10;2.10;;;26.50;73.20;;;;;;5019342;28;20026;-77
2022/08/09 07:34:18;;;;;;;10.95;2.00;;;26.60;72.80;;;;;;5040459;28;20098;-75
2022/08/09 07:36:44;;;;;;;3.50;1.88;;;26.60;72.80;;;;;;5047492;28;20450;-87
2022/08/09 07:39:10;;;;;;;12.68;2.13;;;26.60;72.20;;;;;;5045227;28;20048;-75
2022/08/09 07:41:36;;;;;;;4.20;1.70;;;26.70;72.60;;;;;;5030782;28;20511;-82
2022/08/09 07:44:02;;;;;;;5.20;2.13;;;26.80;72.00;;;;;;5039665;28;20033;-76
2022/08/09 07:46:28;;;;;;;7.18;1.75;;;26.80;71.80;;;;;;5033844;28;20438;-76
2022/08/09 07:48:54;;;;;;;6.22;1.70;;;26.80;72.30;;;;;;5041825;28;20036;-76
2022/08/09 07:51:20;;;;;;;4.97;1.60;;;26.90;71.60;;;;;;5034812;28;20025;-76
2022/08/09 07:53:47;;;;;;;4.88;1.80;;;26.90;71.70;;;;;;5043189;28;20056;-76
2022/08/09 07:56:13;;;;;;;3.10;1.75;;;27.00;71.50;;;;;;5026050;28;20018;-76
2022/08/09 07:58:39;;;;;;;3.88;1.80;;;27.00;71.60;;;;;;5027603;28;20080;-75
2022/08/09 08:01:05;;;;;;;3.03;1.50;;;27.10;72.50;;;;;;5024169;28;20048;-74
2022/08/09 08:03:31;;;;;;;3.22;1.60;;;27.20;71.50;;;;;;5031060;28;20283;-77
2022/08/09 08:05:56;;;;;;;5.30;1.77;;;27.30;71.00;;;;;;5024927;28;20073;-78
2022/08/09 08:08:23;;;;;;;8.30;1.90;;;27.30;70.90;;;;;;5042633;28;20561;-78
2022/08/09 08:10:49;;;;;;;9.32;2.17;;;27.30;70.90;;;;;;5027802;28;20018;-78
2022/08/09 08:13:15;;;;;;;4.13;1.63;;;27.40;70.50;;;;;;5044256;28;20087;-81
2022/08/09 08:15:41;;;;;;;8.18;1.70;;;27.50;70.20;;;;;;5029255;28;20049;-75
2022/08/09 08:18:06;;;;;;;4.85;1.83;;;27.50;69.40;;;;;;5038333;28;20358;-77
2022/08/09 08:20:32;;;;;;;2.67;1.98;;;27.60;70.30;;;;;;5033690;28;20464;-76
2022/08/09 08:23:01;;;;;;;8.35;1.90;;;27.60;69.60;;;;;;5038851;28;20480;-77
2022/08/09 08:25:26;;;;;;;6.13;2.40;;;27.60;70.00;;;;;;5029119;28;20060;-78
2022/08/09 08:27:52;;;;;;;7.22;1.60;;;27.70;70.10;;;;;;5035791;28;20440;-77
2022/08/09 08:30:18;;;;;;;4.75;1.90;;;27.70;69.50;;;;;;5030207;28;20025;-77
2022/08/09 08:32:44;;;;;;;2.97;1.70;;;27.70;69.60;;;;;;5028070;28;20029;-76
2022/08/09 08:35:10;;;;;;;6.47;1.88;;;27.70;69.30;;;;;;5023969;28;20098;-76
2022/08/09 08:37:36;;;;;;;18.42;2.08;;;27.80;69.20;;;;;;5035921;28;20130;-77
2022/08/09 08:40:03;;;;;;;12.63;2.17;;;27.80;69.40;;;;;;5024234;28;20492;-77
2022/08/09 08:42:30;;;;;;;5.00;1.80;;;27.90;69.40;;;;;;5030968;28;20029;-75
2022/08/09 08:44:58;;;;;;;2.92;2.00;;;28.00;68.90;;;;;;5035621;28;20030;-74
2022/08/09 08:47:25;;;;;;;5.07;2.05;;;28.00;68.70;;;;;;5037942;28;20033;-76
2022/08/09 08:49:53;;;;;;;5.10;1.77;;;28.00;68.90;;;;;;5032188;28;20068;-77
2022/08/09 08:52:24;;;;;;;6.03;2.28;;;28.10;69.30;;;;;;5030762;28;20033;-75
2022/08/09 08:55:01;;;;;;;5.70;1.77;;;28.00;69.00;;;;;;5029575;28;20020;-76
2022/08/09 08:57:27;;;;;;;2.35;1.90;;;28.10;68.60;;;;;;5037543;28;20454;-74
2022/08/09 08:59:54;;;;;;;4.30;2.08;;;28.10;69.50;;;;;;5048970;28;20033;-73
2022/08/09 09:02:28;;;;;;;3.25;2.10;;;28.10;69.30;;;;;;5044830;28;20061;-76
2022/08/09 09:04:58;;;;;;;5.05;1.77;;;28.20;69.60;;;;;;5030236;28;20022;-75
2022/08/09 09:07:25;;;;;;;3.60;2.00;;;28.20;69.50;;;;;;5030297;28;20521;-74
2022/08/09 09:09:53;;;;;;;2.33;1.77;;;28.30;69.50;;;;;;5048916;28;20029;-74
2022/08/09 09:12:21;;;;;;;4.35;1.98;;;28.40;69.10;;;;;;5046828;28;20060;-80
2022/08/09 09:14:49;;;;;;;3.90;2.03;;;28.50;69.00;;;;;;5025522;28;20037;-77
2022/08/09 09:17:15;;;;;;;5.03;2.10;;;28.60;69.20;;;;;;5029993;28;20033;-75
2022/08/09 09:19:42;;;;;;;14.43;2.83;;;28.60;68.70;;;;;;5035204;28;20029;-76
2022/08/09 09:22:12;;;;;;;5.03;1.80;;;28.60;68.80;;;;;;5034861;28;20054;-77
2022/08/09 09:24:44;;;;;;;5.70;2.25;;;28.70;68.90;;;;;;5029636;28;20036;-79
2022/08/09 09:27:31;;;;;;;4.43;2.00;;;28.70;68.40;;;;;;5026332;28;20056;-81
2022/08/09 09:30:07;;;;;;;3.30;2.22;;;28.80;68.40;;;;;;5023984;28;20069;-78
2022/08/09 09:32:33;;;;;;;11.40;2.30;;;28.90;68.20;;;;;;5034012;28;20022;-81
2022/08/09 09:35:10;;;;;;;2.65;1.98;;;29.00;68.50;;;;;;5022213;28;20032;-78
2022/08/09 09:37:38;;;;;;;3.72;1.77;;;29.00;68.30;;;;;;5033090;28;20146;-79
2022/08/09 09:40:04;;;;;;;4.47;2.20;;;29.00;68.30;;;;;;5034468;28;20053;-80
2022/08/09 09:42:30;;;;;;;2.78;2.05;;;29.10;68.10;;;;;;5030483;28;20034;-81
2022/08/09 09:45:02;;;;;;;2.72;1.88;;;29.10;67.70;;;;;;5027258;28;20025;-85
2022/08/09 09:47:28;;;;;;;3.30;2.13;;;29.10;67.30;;;;;;5033641;28;20063;-82
2022/08/09 09:49:56;;;;;;;2.28;1.70;;;29.10;67.80;;;;;;5047271;28;20302;-80
2022/08/09 09:52:22;;;;;;;4.80;2.00;;;29.10;67.60;;;;;;5046116;28;20029;-82
2022/08/09 09:54:48;;;;;;;3.83;1.95;;;29.10;67.60;;;;;;5043100;28;20059;-82
2022/08/09 09:57:18;;;;;;;4.80;2.63;;;29.10;67.60;;;;;;5043325;28;20024;-82
2022/08/09 09:59:46;;;;;;;4.25;2.08;;;29.20;67.70;;;;;;5034421;28;20025;-79
2022/08/09 10:02:13;;;;;;;7.05;1.98;;;29.20;67.60;;;;;;5032354;28;20120;-82
2022/08/09 10:04:39;;;;;;;7.30;2.03;;;29.20;67.70;;;;;;5044817;28;20029;-80
2022/08/09 10:07:19;;;;;;;4.80;2.13;;;29.30;67.40;;;;;;5044142;28;20104;-80
2022/08/09 10:09:48;;;;;;;3.65;2.05;;;29.20;67.30;;;;;;5028065;28;20025;-81
2022/08/09 10:12:30;;;;;;;2.78;2.10;;;29.30;67.60;;;;;;5035510;28;20108;-80
2022/08/09 10:15:05;;;;;;;3.50;2.03;;;29.30;67.50;;;;;;5029197;28;20022;-82
2022/08/09 10:17:33;;;;;;;2.85;1.95;;;29.40;68.20;;;;;;5036592;28;20092;-82
2022/08/09 10:20:00;;;;;;;3.10;2.22;;;29.50;67.10;;;;;;5046191;28;20143;-83
2022/08/09 10:22:37;;;;;;;5.88;2.30;;;29.50;67.30;;;;;;5043501;28;20051;-81
2022/08/09 10:25:05;;;;;;;3.65;2.03;;;29.60;67.40;;;;;;5032589;28;20491;-82
2022/08/09 10:27:32;;;;;;;4.05;2.17;;;29.70;67.20;;;;;;5035797;28;20212;-82
2022/08/09 10:30:01;;;;;;;4.00;2.00;;;29.80;67.10;;;;;;5032351;28;20037;-83
2022/08/09 10:32:27;;;;;;;8.35;2.17;;;29.90;67.30;;;;;;5033271;28;20021;-82
2022/08/09 10:34:54;;;;;;;4.97;2.10;;;30.00;67.00;;;;;;5032797;28;20056;-79
2022/08/09 10:37:21;;;;;;;3.13;2.20;;;30.00;66.30;;;;;;5035800;28;20041;-85
2022/08/09 10:39:48;;;;;;;2.78;1.95;;;30.10;66.00;;;;;;5029469;28;20041;-81
2022/08/09 10:42:14;;;;;;;2.63;2.40;;;30.10;66.40;;;;;;5033688;28;20111;-82
2022/08/09 10:44:43;;;;;;;3.38;2.10;;;30.20;65.90;;;;;;5030602;28;20029;-82
2022/08/09 10:47:35;;;;;;;3.05;2.10;;;30.30;65.90;;;;;;5032955;28;20029;-83
2022/08/09 10:50:13;;;;;;;2.80;2.03;;;30.20;65.80;;;;;;5027512;28;20076;-80
2022/08/09 10:53:17;;;;;;;2.42;2.22;;;30.30;65.50;;;;;;5033304;28;20033;-80
2022/08/09 10:55:43;;;;;;;2.35;2.15;;;30.40;65.50;;;;;;5006436;28;20049;-80
2022/08/09 10:58:31;;;;;;;3.78;2.20;;;30.40;65.30;;;;;;5027715;28;20038;-82
2022/08/09 11:00:57;;;;;;;2.58;2.28;;;30.50;65.00;;;;;;5006518;28;20022;-82
2022/08/09 11:03:25;;;;;;;3.38;2.00;;;30.50;65.00;;;;;;5030704;28;20033;-81
2022/08/09 11:06:21;;;;;;;3.42;1.90;;;30.50;64.90;;;;;;5034027;28;20026;-83
2022/08/09 11:08:48;;;;;;;2.70;2.00;;;30.60;64.80;;;;;;5032347;28;20032;-84
2022/08/09 11:11:18;;;;;;;3.15;2.05;;;30.70;64.60;;;;;;5028947;28;20527;-84
2022/08/09 11:13:45;;;;;;;2.65;1.95;;;30.80;65.00;;;;;;5036931;28;20033;-84
2022/08/09 11:16:37;;;;;;;3.40;2.40;;;31.00;64.40;;;;;;5031533;28;20025;-82
2022/08/09 11:19:05;;;;;;;5.60;2.63;;;31.10;64.40;;;;;;5039815;28;20069;-86
2022/08/09 11:22:00;;;;;;;2.75;2.20;;;31.20;64.40;;;;;;5031991;28;20047;-84
2022/08/09 11:24:26;;;;;;;2.67;2.00;;;31.30;63.70;;;;;;5019575;28;20039;-83
2022/08/09 11:26:52;;;;;;;2.92;2.10;;;31.50;63.80;;;;;;5034460;28;20028;-84
2022/08/09 11:29:53;;;;;;;3.65;2.20;;;31.50;63.30;;;;;;5036855;28;20116;-78
2022/08/09 11:32:43;;;;;;;3.38;2.13;;;31.70;63.10;;;;;;5036729;28;20487;-77
2022/08/09 11:35:48;;;;;;;2.00;1.80;;;31.80;62.80;;;;;;5032050;28;20030;-78
2022/08/09 11:38:15;;;;;;;3.60;2.30;;;31.80;62.90;;;;;;5038029;28;20064;-84
2022/08/09 11:40:41;;;;;;;4.75;2.38;;;31.80;62.70;;;;;;5050167;28;20108;-84
2022/08/09 11:43:07;;;;;;;6.95;2.10;;;32.00;62.70;;;;;;5038958;28;20190;-77
2022/08/09 11:45:39;;;;;;;11.57;2.83;;;32.00;62.80;;;;;;5031406;28;20533;-80
2022/08/09 11:48:10;;;;;;;4.45;2.35;;;32.10;63.20;;;;;;5040612;28;20077;-76
2022/08/09 11:51:03;;;;;;;2.92;1.95;;;32.20;63.00;;;;;;5034598;28;20484;-76
2022/08/09 11:53:36;;;;;;;4.60;2.05;;;32.30;62.90;;;;;;5041714;28;20078;-75
2022/08/09 11:56:26;;;;;;;2.22;1.90;;;32.30;62.20;;;;;;5034355;28;20032;-73
2022/08/09 11:58:57;;;;;;;3.50;2.10;;;32.30;62.00;;;;;;5042884;28;20537;-71
2022/08/09 12:01:35;;;;;;;5.88;2.33;;;32.30;62.20;;;;;;5049784;28;20038;-72
2022/08/09 12:04:16;;;;;;;3.38;2.33;;;32.30;62.10;;;;;;5039305;28;20034;-72
2022/08/09 12:06:51;;;;;;;4.37;2.40;;;32.40;62.20;;;;;;5036770;28;20029;-71
2022/08/09 12:09:25;;;;;;;2.53;2.33;;;32.40;62.40;;;;;;5043990;28;20091;-72
2022/08/09 12:12:01;;;;;;;2.80;2.05;;;32.70;62.30;;;;;;5048102;28;20053;-73
2022/08/09 12:14:32;;;;;;;4.15;2.22;;;33.70;60.20;;;;;;5046695;28;20040;-73
2022/08/09 12:16:57;;;;;;;2.47;2.27;;;35.50;58.70;;;;;;5046570;28;20021;-73
2022/08/09 12:19:31;;;;;;;4.45;2.17;;;37.50;56.10;;;;;;5047346;28;20090;-71
2022/08/09 12:22:04;;;;;;;2.80;2.60;;;39.20;53.80;;;;;;5047351;28;20025;-72
2022/08/09 12:24:30;;;;;;;4.30;2.60;;;40.70;52.70;;;;;;5047841;28;20078;-72
2022/08/09 12:26:58;;;;;;;3.33;2.20;;;41.90;51.20;;;;;;5047151;28;20025;-75
2022/08/09 12:29:31;;;;;;;4.45;2.45;;;43.20;49.80;;;;;;5037835;28;20017;-73
2022/08/09 12:32:06;;;;;;;2.42;2.22;;;44.30;48.80;;;;;;5035476;28;20082;-73
2022/08/09 12:34:32;;;;;;;3.45;2.28;;;45.70;47.80;;;;;;5038353;28;20078;-73
2022/08/09 12:36:59;;;;;;;4.75;2.20;;;46.80;46.40;;;;;;5036918;28;20536;-72
2022/08/09 12:39:25;;;;;;;4.95;2.15;;;47.90;45.10;;;;;;5037507;28;20053;-73
2022/08/09 12:41:51;;;;;;;8.07;2.45;;;48.70;44.40;;;;;;5035361;28;20379;-75
2022/08/09 12:44:17;;;;;;;3.85;2.05;;;49.40;43.90;;;;;;5027014;28;20087;-74
2022/08/09 12:46:45;;;;;;;2.42;2.22;;;50.10;42.90;;;;;;5035898;28;20025;-74
2022/08/09 12:49:12;;;;;;;2.17;2.00;;;50.80;42.20;;;;;;5038597;28;20531;-74
2022/08/09 12:51:38;;;;;;;3.97;2.30;;;51.20;41.70;;;;;;5034225;28;20035;-75
2022/08/09 12:54:05;;;;;;;2.38;2.17;;;51.40;41.20;;;;;;5041779;28;20033;-76
2022/08/09 12:56:32;;;;;;;3.58;2.78;;;51.70;41.10;;;;;;5034140;28;20032;-74
2022/08/09 12:59:16;;;;;;;6.72;2.58;;;52.20;40.60;;;;;;5039572;28;20391;-74